sensor_id;sensor_type;location;lat;lon;timestamp;temperature;humidity
68248;SHT30;55064;49.636;12.164;2023-03-01T00:01:41;-1.93;80.19
68248;SHT30;55064;49.636;12.164;2023-03-01T00:04:09;-1.89;80.34
68248;SHT30;55064;49.636;12.164;2023-03-01T00:06:34;-1.93;80.05
68248;SHT30;55064;49.636;12.164;2023-03-01T00:09:00;-1.92;80.30
68248;SHT30;55064;49.636;12.164;2023-03-01T00:11:28;-1.94;80.15
68248;SHT30;55064;49.636;12.164;2023-03-01T00:13:57;-1.94;79.97
68248;SHT30;55064;49.636;12.164;2023-03-01T00:16:34;-1.94;80.09
68248;SHT30;55064;49.636;12.164;2023-03-01T00:19:01;-1.92;80.12
68248;SHT30;55064;49.636;12.164;2023-03-01T00:21:27;-1.97;80.09
68248;SHT30;55064;49.636;12.164;2023-03-01T00:23:53;-2.00;80.12
68248;SHT30;55064;49.636;12.164;2023-03-01T00:26:22;-2.00;80.21
68248;SHT30;55064;49.636;12.164;2023-03-01T00:28:47;-1.94;80.11
68248;SHT30;55064;49.636;12.164;2023-03-01T00:31:19;-2.00;80.06
68248;SHT30;55064;49.636;12.164;2023-03-01T00:33:45;-1.99;80.31
68248;SHT30;55064;49.636;12.164;2023-03-01T00:36:14;-1.99;80.18
68248;SHT30;55064;49.636;12.164;2023-03-01T00:38:43;-2.00;80.04
68248;SHT30;55064;49.636;12.164;2023-03-01T00:41:19;-1.97;79.95
68248;SHT30;55064;49.636;12.164;2023-03-01T00:43:46;-1.96;79.56
68248;SHT30;55064;49.636;12.164;2023-03-01T00:46:14;-1.92;79.17
68248;SHT30;55064;49.636;12.164;2023-03-01T00:48:43;-1.85;78.69
68248;SHT30;55064;49.636;12.164;2023-03-01T00:51:14;-1.81;78.42
68248;SHT30;55064;49.636;12.164;2023-03-01T00:53:42;-1.75;78.16
68248;SHT30;55064;49.636;12.164;2023-03-01T00:56:09;-1.76;78.35
68248;SHT30;55064;49.636;12.164;2023-03-01T00:58:35;-1.82;78.89
68248;SHT30;55064;49.636;12.164;2023-03-01T01:01:06;-1.87;78.98
68248;SHT30;55064;49.636;12.164;2023-03-01T01:03:53;-1.89;79.25
68248;SHT30;55064;49.636;12.164;2023-03-01T01:08:47;-1.90;79.02
68248;SHT30;55064;49.636;12.164;2023-03-01T01:11:13;-1.93;78.85
68248;SHT30;55064;49.636;12.164;2023-03-01T01:13:39;-1.85;78.35
68248;SHT30;55064;49.636;12.164;2023-03-01T01:16:05;-1.65;77.35
68248;SHT30;55064;49.636;12.164;2023-03-01T01:18:31;-1.65;77.41
68248;SHT30;55064;49.636;12.164;2023-03-01T01:20:56;-1.64;77.23
68248;SHT30;55064;49.636;12.164;2023-03-01T01:23:23;-1.68;77.27
68248;SHT30;55064;49.636;12.164;2023-03-01T01:25:48;-1.61;76.87
68248;SHT30;55064;49.636;12.164;2023-03-01T01:28:14;-1.51;76.34
68248;SHT30;55064;49.636;12.164;2023-03-01T01:30:42;-1.52;76.23
68248;SHT30;55064;49.636;12.164;2023-03-01T01:33:09;-1.47;75.94
68248;SHT30;55064;49.636;12.164;2023-03-01T01:35:34;-1.50;76.00
68248;SHT30;55064;49.636;12.164;2023-03-01T01:38:02;-1.56;76.16
68248;SHT30;55064;49.636;12.164;2023-03-01T01:40:28;-1.62;76.50
68248;SHT30;55064;49.636;12.164;2023-03-01T01:42:54;-1.68;76.75
68248;SHT30;55064;49.636;12.164;2023-03-01T01:45:33;-1.61;76.47
68248;SHT30;55064;49.636;12.164;2023-03-01T01:48:05;-1.58;76.08
68248;SHT30;55064;49.636;12.164;2023-03-01T01:50:33;-1.58;76.09
68248;SHT30;55064;49.636;12.164;2023-03-01T01:53:15;-1.54;75.76
68248;SHT30;55064;49.636;12.164;2023-03-01T01:55:45;-1.56;75.92
68248;SHT30;55064;49.636;12.164;2023-03-01T01:58:16;-1.61;76.14
68248;SHT30;55064;49.636;12.164;2023-03-01T02:00:45;-1.61;76.19
68248;SHT30;55064;49.636;12.164;2023-03-01T02:03:14;-1.66;76.40
68248;SHT30;55064;49.636;12.164;2023-03-01T02:08:32;-1.78;76.76
68248;SHT30;55064;49.636;12.164;2023-03-01T02:10:58;-1.79;76.93
68248;SHT30;55064;49.636;12.164;2023-03-01T02:13:25;-1.89;77.16
68248;SHT30;55064;49.636;12.164;2023-03-01T02:15:54;-1.97;77.66
68248;SHT30;55064;49.636;12.164;2023-03-01T02:18:21;-1.99;77.76
68248;SHT30;55064;49.636;12.164;2023-03-01T02:23:24;-2.00;78.16
68248;SHT30;55064;49.636;12.164;2023-03-01T02:28:53;-2.03;78.23
68248;SHT30;55064;49.636;12.164;2023-03-01T02:31:20;-2.09;78.32
68248;SHT30;55064;49.636;12.164;2023-03-01T02:34:07;-2.13;78.70
68248;SHT30;55064;49.636;12.164;2023-03-01T02:36:39;-2.23;78.60
68248;SHT30;55064;49.636;12.164;2023-03-01T02:39:12;-2.23;79.31
68248;SHT30;55064;49.636;12.164;2023-03-01T02:41:44;-2.23;79.23
68248;SHT30;55064;49.636;12.164;2023-03-01T02:44:12;-2.24;79.37
68248;SHT30;55064;49.636;12.164;2023-03-01T02:46:47;-2.31;79.69
68248;SHT30;55064;49.636;12.164;2023-03-01T02:49:30;-2.36;79.98
68248;SHT30;55064;49.636;12.164;2023-03-01T02:55:02;-2.38;80.54
68248;SHT30;55064;49.636;12.164;2023-03-01T02:57:33;-2.42;80.70
68248;SHT30;55064;49.636;12.164;2023-03-01T03:00:03;-2.41;80.83
68248;SHT30;55064;49.636;12.164;2023-03-01T03:02:32;-2.48;80.76
68248;SHT30;55064;49.636;12.164;2023-03-01T03:05:08;-2.47;81.09
68248;SHT30;55064;49.636;12.164;2023-03-01T03:07:40;-2.48;80.95
68248;SHT30;55064;49.636;12.164;2023-03-01T03:10:11;-2.49;81.03
68248;SHT30;55064;49.636;12.164;2023-03-01T03:12:37;-2.52;80.84
68248;SHT30;55064;49.636;12.164;2023-03-01T03:15:06;-2.49;81.10
68248;SHT30;55064;49.636;12.164;2023-03-01T03:17:37;-2.51;81.12
68248;SHT30;55064;49.636;12.164;2023-03-01T03:20:06;-2.54;81.17
68248;SHT30;55064;49.636;12.164;2023-03-01T03:22:36;-2.55;81.26
68248;SHT30;55064;49.636;12.164;2023-03-01T03:25:04;-2.57;81.40
68248;SHT30;55064;49.636;12.164;2023-03-01T03:27:31;-2.58;81.56
68248;SHT30;55064;49.636;12.164;2023-03-01T03:29:57;-2.61;81.49
68248;SHT30;55064;49.636;12.164;2023-03-01T03:32:22;-2.68;81.71
68248;SHT30;55064;49.636;12.164;2023-03-01T03:34:48;-2.70;81.95
68248;SHT30;55064;49.636;12.164;2023-03-01T03:37:14;-2.73;82.05
68248;SHT30;55064;49.636;12.164;2023-03-01T03:40:00;-2.78;81.97
68248;SHT30;55064;49.636;12.164;2023-03-01T03:42:25;-2.76;82.22
68248;SHT30;55064;49.636;12.164;2023-03-01T03:44:51;-2.75;82.13
68248;SHT30;55064;49.636;12.164;2023-03-01T03:47:20;-2.73;82.27
68248;SHT30;55064;49.636;12.164;2023-03-01T03:49:45;-2.82;82.35
68248;SHT30;55064;49.636;12.164;2023-03-01T03:52:11;-2.86;82.40
68248;SHT30;55064;49.636;12.164;2023-03-01T03:54:41;-2.83;82.70
68248;SHT30;55064;49.636;12.164;2023-03-01T03:57:09;-2.90;82.67
68248;SHT30;55064;49.636;12.164;2023-03-01T03:59:34;-2.92;82.78
68248;SHT30;55064;49.636;12.164;2023-03-01T04:02:02;-2.92;82.76
68248;SHT30;55064;49.636;12.164;2023-03-01T04:04:27;-2.90;82.71
68248;SHT30;55064;49.636;12.164;2023-03-01T04:06:53;-2.93;82.85
68248;SHT30;55064;49.636;12.164;2023-03-01T04:09:18;-2.93;83.09
68248;SHT30;55064;49.636;12.164;2023-03-01T04:11:43;-2.96;83.02
68248;SHT30;55064;49.636;12.164;2023-03-01T04:14:09;-2.99;83.42
68248;SHT30;55064;49.636;12.164;2023-03-01T04:16:35;-2.97;83.36
68248;SHT30;55064;49.636;12.164;2023-03-01T04:19:01;-3.03;83.48
68248;SHT30;55064;49.636;12.164;2023-03-01T04:21:26;-3.04;83.74
68248;SHT30;55064;49.636;12.164;2023-03-01T04:23:52;-3.06;83.55
68248;SHT30;55064;49.636;12.164;2023-03-01T04:26:19;-3.13;83.97
68248;SHT30;55064;49.636;12.164;2023-03-01T04:28:45;-3.11;83.95
68248;SHT30;55064;49.636;12.164;2023-03-01T04:31:16;-3.11;83.78
68248;SHT30;55064;49.636;12.164;2023-03-01T04:33:45;-3.11;83.58
68248;SHT30;55064;49.636;12.164;2023-03-01T04:36:12;-3.07;83.68
68248;SHT30;55064;49.636;12.164;2023-03-01T04:38:39;-3.03;83.38
68248;SHT30;55064;49.636;12.164;2023-03-01T04:41:07;-3.10;83.35
68248;SHT30;55064;49.636;12.164;2023-03-01T04:43:33;-3.10;83.43
68248;SHT30;55064;49.636;12.164;2023-03-01T04:46:13;-3.07;83.29
68248;SHT30;55064;49.636;12.164;2023-03-01T04:48:41;-3.11;83.11
68248;SHT30;55064;49.636;12.164;2023-03-01T04:51:07;-3.11;83.10
68248;SHT30;55064;49.636;12.164;2023-03-01T04:53:35;-3.16;83.14
68248;SHT30;55064;49.636;12.164;2023-03-01T04:56:02;-3.13;83.15
68248;SHT30;55064;49.636;12.164;2023-03-01T04:58:36;-3.17;83.26
68248;SHT30;55064;49.636;12.164;2023-03-01T05:01:20;-3.10;83.15
68248;SHT30;55064;49.636;12.164;2023-03-01T05:03:51;-3.06;82.93
68248;SHT30;55064;49.636;12.164;2023-03-01T05:06:18;-3.06;82.95
68248;SHT30;55064;49.636;12.164;2023-03-01T05:08:44;-3.10;82.87
68248;SHT30;55064;49.636;12.164;2023-03-01T05:11:11;-3.13;82.73
68248;SHT30;55064;49.636;12.164;2023-03-01T05:13:38;-3.07;81.94
68248;SHT30;55064;49.636;12.164;2023-03-01T05:16:07;-3.50;84.50
68248;SHT30;55064;49.636;12.164;2023-03-01T05:18:36;-3.59;85.15
68248;SHT30;55064;49.636;12.164;2023-03-01T05:21:08;-3.54;84.73
68248;SHT30;55064;49.636;12.164;2023-03-01T05:23:34;-3.58;85.02
68248;SHT30;55064;49.636;12.164;2023-03-01T05:26:01;-3.59;84.72
68248;SHT30;55064;49.636;12.164;2023-03-01T05:28:29;-3.65;84.69
68248;SHT30;55064;49.636;12.164;2023-03-01T05:30:57;-3.61;84.46
68248;SHT30;55064;49.636;12.164;2023-03-01T05:33:26;-3.61;84.66
68248;SHT30;55064;49.636;12.164;2023-03-01T05:35:52;-3.66;84.88
68248;SHT30;55064;49.636;12.164;2023-03-01T05:38:22;-3.68;84.51
68248;SHT30;55064;49.636;12.164;2023-03-01T05:40:52;-3.72;84.86
68248;SHT30;55064;49.636;12.164;2023-03-01T05:43:20;-3.71;84.95
68248;SHT30;55064;49.636;12.164;2023-03-01T05:45:46;-3.78;85.09
68248;SHT30;55064;49.636;12.164;2023-03-01T05:48:12;-3.79;84.99
68248;SHT30;55064;49.636;12.164;2023-03-01T05:50:44;-3.79;84.76
68248;SHT30;55064;49.636;12.164;2023-03-01T05:53:18;-3.90;85.56
68248;SHT30;55064;49.636;12.164;2023-03-01T05:55:47;-3.85;85.74
68248;SHT30;55064;49.636;12.164;2023-03-01T05:58:16;-3.93;85.87
68248;SHT30;55064;49.636;12.164;2023-03-01T06:00:44;-3.91;85.73
68248;SHT30;55064;49.636;12.164;2023-03-01T06:03:12;-3.87;85.60
68248;SHT30;55064;49.636;12.164;2023-03-01T06:05:39;-3.90;85.49
68248;SHT30;55064;49.636;12.164;2023-03-01T06:08:08;-3.87;85.24
68248;SHT30;55064;49.636;12.164;2023-03-01T06:10:36;-3.89;85.67
68248;SHT30;55064;49.636;12.164;2023-03-01T06:13:02;-3.96;85.66
68248;SHT30;55064;49.636;12.164;2023-03-01T06:15:30;-3.90;85.60
68248;SHT30;55064;49.636;12.164;2023-03-01T06:17:56;-3.85;85.06
68248;SHT30;55064;49.636;12.164;2023-03-01T06:20:30;-3.83;84.94
68248;SHT30;55064;49.636;12.164;2023-03-01T06:22:57;-3.85;85.34
68248;SHT30;55064;49.636;12.164;2023-03-01T06:25:25;-3.89;85.30
68248;SHT30;55064;49.636;12.164;2023-03-01T06:27:50;-3.83;85.33
68248;SHT30;55064;49.636;12.164;2023-03-01T06:30:19;-3.80;85.22
68248;SHT30;55064;49.636;12.164;2023-03-01T06:32:48;-3.79;85.16
68248;SHT30;55064;49.636;12.164;2023-03-01T06:35:15;-3.75;85.36
68248;SHT30;55064;49.636;12.164;2023-03-01T06:37:45;-3.71;85.51
68248;SHT30;55064;49.636;12.164;2023-03-01T06:40:11;-3.61;85.03
68248;SHT30;55064;49.636;12.164;2023-03-01T06:42:39;-3.59;85.62
68248;SHT30;55064;49.636;12.164;2023-03-01T06:45:08;-3.52;85.16
68248;SHT30;55064;49.636;12.164;2023-03-01T06:47:34;-3.37;84.63
68248;SHT30;55064;49.636;12.164;2023-03-01T06:50:01;-3.31;84.43
68248;SHT30;55064;49.636;12.164;2023-03-01T06:52:30;-3.23;83.91
68248;SHT30;55064;49.636;12.164;2023-03-01T06:54:57;-3.14;83.80
68248;SHT30;55064;49.636;12.164;2023-03-01T06:57:26;-3.00;83.21
68248;SHT30;55064;49.636;12.164;2023-03-01T06:59:54;-2.90;83.26
68248;SHT30;55064;49.636;12.164;2023-03-01T07:02:21;-2.75;83.14
68248;SHT30;55064;49.636;12.164;2023-03-01T07:04:51;-2.69;82.61
68248;SHT30;55064;49.636;12.164;2023-03-01T07:07:19;-2.55;82.24
68248;SHT30;55064;49.636;12.164;2023-03-01T07:09:46;-2.42;81.98
68248;SHT30;55064;49.636;12.164;2023-03-01T07:12:11;-2.30;81.67
68248;SHT30;55064;49.636;12.164;2023-03-01T07:14:44;-2.20;80.99
68248;SHT30;55064;49.636;12.164;2023-03-01T07:17:13;-1.94;80.30
68248;SHT30;55064;49.636;12.164;2023-03-01T07:19:47;-1.86;79.89
68248;SHT30;55064;49.636;12.164;2023-03-01T07:22:13;-1.75;79.33
68248;SHT30;55064;49.636;12.164;2023-03-01T07:24:38;-1.62;78.66
68248;SHT30;55064;49.636;12.164;2023-03-01T07:27:10;-1.47;78.58
68248;SHT30;55064;49.636;12.164;2023-03-01T07:29:35;-1.23;76.40
68248;SHT30;55064;49.636;12.164;2023-03-01T07:32:05;-1.09;76.78
68248;SHT30;55064;49.636;12.164;2023-03-01T07:34:30;-0.97;76.73
68248;SHT30;55064;49.636;12.164;2023-03-01T07:36:58;-0.83;75.89
68248;SHT30;55064;49.636;12.164;2023-03-01T07:39:23;-0.73;76.24
68248;SHT30;55064;49.636;12.164;2023-03-01T07:41:49;-0.72;75.79
68248;SHT30;55064;49.636;12.164;2023-03-01T07:44:15;-0.60;75.69
68248;SHT30;55064;49.636;12.164;2023-03-01T07:46:41;-0.42;74.92
68248;SHT30;55064;49.636;12.164;2023-03-01T07:49:09;-0.44;74.92
68248;SHT30;55064;49.636;12.164;2023-03-01T07:51:35;-0.28;74.50
68248;SHT30;55064;49.636;12.164;2023-03-01T07:54:01;-0.02;72.79
68248;SHT30;55064;49.636;12.164;2023-03-01T07:56:30;0.18;72.54
68248;SHT30;55064;49.636;12.164;2023-03-01T07:58:59;0.10;72.22
68248;SHT30;55064;49.636;12.164;2023-03-01T08:01:24;0.07;73.02
68248;SHT30;55064;49.636;12.164;2023-03-01T08:03:51;0.26;72.47
68248;SHT30;55064;49.636;12.164;2023-03-01T08:06:17;0.31;71.59
68248;SHT30;55064;49.636;12.164;2023-03-01T08:08:42;0.46;71.95
68248;SHT30;55064;49.636;12.164;2023-03-01T08:11:10;0.48;71.17
68248;SHT30;55064;49.636;12.164;2023-03-01T08:13:40;0.59;71.03
68248;SHT30;55064;49.636;12.164;2023-03-01T08:16:12;0.50;70.72
68248;SHT30;55064;49.636;12.164;2023-03-01T08:18:41;0.66;70.24
68248;SHT30;55064;49.636;12.164;2023-03-01T08:21:15;0.63;69.84
68248;SHT30;55064;49.636;12.164;2023-03-01T08:23:42;0.75;70.57
68248;SHT30;55064;49.636;12.164;2023-03-01T08:26:16;0.88;70.73
68248;SHT30;55064;49.636;12.164;2023-03-01T08:28:42;0.80;69.86
68248;SHT30;55064;49.636;12.164;2023-03-01T08:31:20;1.07;69.49
68248;SHT30;55064;49.636;12.164;2023-03-01T08:33:49;0.87;68.98
68248;SHT30;55064;49.636;12.164;2023-03-01T08:36:21;1.01;69.61
68248;SHT30;55064;49.636;12.164;2023-03-01T08:38:52;0.96;68.85
68248;SHT30;55064;49.636;12.164;2023-03-01T08:41:17;0.88;69.14
68248;SHT30;55064;49.636;12.164;2023-03-01T08:43:43;0.83;68.98
68248;SHT30;55064;49.636;12.164;2023-03-01T08:46:08;1.00;68.89
68248;SHT30;55064;49.636;12.164;2023-03-01T08:48:34;1.38;68.28
68248;SHT30;55064;49.636;12.164;2023-03-01T08:51:15;1.51;67.43
68248;SHT30;55064;49.636;12.164;2023-03-01T08:53:41;1.55;67.24
68248;SHT30;55064;49.636;12.164;2023-03-01T08:56:08;1.98;66.88
68248;SHT30;55064;49.636;12.164;2023-03-01T08:58:34;1.49;66.90
68248;SHT30;55064;49.636;12.164;2023-03-01T09:01:11;1.60;66.66
68248;SHT30;55064;49.636;12.164;2023-03-01T09:03:41;2.45;65.52
68248;SHT30;55064;49.636;12.164;2023-03-01T09:06:07;2.69;64.55
68248;SHT30;55064;49.636;12.164;2023-03-01T09:08:41;2.73;63.93
68248;SHT30;55064;49.636;12.164;2023-03-01T09:11:14;2.55;64.07
68248;SHT30;55064;49.636;12.164;2023-03-01T09:13:41;2.79;63.56
68248;SHT30;55064;49.636;12.164;2023-03-01T09:16:07;2.76;63.85
68248;SHT30;55064;49.636;12.164;2023-03-01T09:18:35;2.87;63.52
68248;SHT30;55064;49.636;12.164;2023-03-01T09:21:12;2.22;64.52
68248;SHT30;55064;49.636;12.164;2023-03-01T09:23:43;2.49;64.66
68248;SHT30;55064;49.636;12.164;2023-03-01T09:26:12;2.44;64.70
68248;SHT30;55064;49.636;12.164;2023-03-01T09:28:39;2.73;63.78
68248;SHT30;55064;49.636;12.164;2023-03-01T09:31:06;2.56;64.30
68248;SHT30;55064;49.636;12.164;2023-03-01T09:33:32;2.80;63.64
68248;SHT30;55064;49.636;12.164;2023-03-01T09:35:59;2.59;63.26
68248;SHT30;55064;49.636;12.164;2023-03-01T09:38:26;2.81;63.56
68248;SHT30;55064;49.636;12.164;2023-03-01T09:40:54;2.94;63.17
68248;SHT30;55064;49.636;12.164;2023-03-01T09:43:45;3.00;62.78
68248;SHT30;55064;49.636;12.164;2023-03-01T09:46:13;3.08;62.40
68248;SHT30;55064;49.636;12.164;2023-03-01T09:49:02;2.76;62.78
68248;SHT30;55064;49.636;12.164;2023-03-01T09:51:32;2.84;62.95
68248;SHT30;55064;49.636;12.164;2023-03-01T09:54:01;2.94;62.85
68248;SHT30;55064;49.636;12.164;2023-03-01T10:02:00;3.21;62.11
68248;SHT30;55064;49.636;12.164;2023-03-01T10:09:34;4.15;61.29
68248;SHT30;55064;49.636;12.164;2023-03-01T10:12:09;4.00;60.42
68248;SHT30;55064;49.636;12.164;2023-03-01T10:14:39;4.08;60.48
68248;SHT30;55064;49.636;12.164;2023-03-01T10:17:19;3.80;60.30
68248;SHT30;55064;49.636;12.164;2023-03-01T10:19:49;3.95;61.00
68248;SHT30;55064;49.636;12.164;2023-03-01T10:22:18;3.82;60.39
68248;SHT30;55064;49.636;12.164;2023-03-01T10:24:47;3.95;60.37
68248;SHT30;55064;49.636;12.164;2023-03-01T10:27:22;3.94;61.22
68248;SHT30;55064;49.636;12.164;2023-03-01T10:32:28;4.04;61.14
68248;SHT30;55064;49.636;12.164;2023-03-01T10:34:55;4.32;60.53
68248;SHT30;55064;49.636;12.164;2023-03-01T10:37:22;4.37;59.51
68248;SHT30;55064;49.636;12.164;2023-03-01T10:40:05;4.32;59.45
68248;SHT30;55064;49.636;12.164;2023-03-01T10:42:38;4.42;58.82
68248;SHT30;55064;49.636;12.164;2023-03-01T10:50:40;3.91;59.95
68248;SHT30;55064;49.636;12.164;2023-03-01T10:53:26;4.17;60.08
68248;SHT30;55064;49.636;12.164;2023-03-01T10:56:04;4.97;59.79
68248;SHT30;55064;49.636;12.164;2023-03-01T10:58:33;4.94;58.63
68248;SHT30;55064;49.636;12.164;2023-03-01T11:03:41;5.25;57.82
68248;SHT30;55064;49.636;12.164;2023-03-01T11:08:46;4.67;58.88
68248;SHT30;55064;49.636;12.164;2023-03-01T11:16:31;5.21;58.29
68248;SHT30;55064;49.636;12.164;2023-03-01T11:19:00;5.00;58.61
68248;SHT30;55064;49.636;12.164;2023-03-01T11:21:28;5.39;58.92
68248;SHT30;55064;49.636;12.164;2023-03-01T11:23:59;5.35;57.65
68248;SHT30;55064;49.636;12.164;2023-03-01T11:26:29;5.14;58.57
68248;SHT30;55064;49.636;12.164;2023-03-01T11:29:00;5.25;57.99
68248;SHT30;55064;49.636;12.164;2023-03-01T11:31:29;5.76;58.53
68248;SHT30;55064;49.636;12.164;2023-03-01T11:34:12;5.74;57.68
68248;SHT30;55064;49.636;12.164;2023-03-01T11:36:49;5.58;58.14
68248;SHT30;55064;49.636;12.164;2023-03-01T11:39:27;5.39;58.33
68248;SHT30;55064;49.636;12.164;2023-03-01T11:42:18;5.70;58.15
68248;SHT30;55064;49.636;12.164;2023-03-01T11:44:49;6.13;58.65
68248;SHT30;55064;49.636;12.164;2023-03-01T11:47:39;5.87;57.54
68248;SHT30;55064;49.636;12.164;2023-03-01T11:50:30;6.03;58.33
68248;SHT30;55064;49.636;12.164;2023-03-01T11:53:38;5.60;58.45
68248;SHT30;55064;49.636;12.164;2023-03-01T12:05:06;5.96;57.98
68248;SHT30;55064;49.636;12.164;2023-03-01T12:10:44;6.25;57.43
68248;SHT30;55064;49.636;12.164;2023-03-01T12:13:27;6.11;58.05
68248;SHT30;55064;49.636;12.164;2023-03-01T12:29:44;6.73;57.57
68248;SHT30;55064;49.636;12.164;2023-03-01T12:40:37;6.65;57.47
68248;SHT30;55064;49.636;12.164;2023-03-01T12:43:30;6.73;57.04
68248;SHT30;55064;49.636;12.164;2023-03-01T12:51:06;6.26;57.11
68248;SHT30;55064;49.636;12.164;2023-03-01T12:53:40;6.53;57.99
68248;SHT30;55064;49.636;12.164;2023-03-01T12:56:15;6.56;57.69
68248;SHT30;55064;49.636;12.164;2023-03-01T12:59:02;6.56;58.19
68248;SHT30;55064;49.636;12.164;2023-03-01T13:04:18;7.11;57.20
68248;SHT30;55064;49.636;12.164;2023-03-01T13:06:55;7.25;56.51
68248;SHT30;55064;49.636;12.164;2023-03-01T13:12:02;6.93;57.83
68248;SHT30;55064;49.636;12.164;2023-03-01T13:16:56;6.96;56.91
68248;SHT30;55064;49.636;12.164;2023-03-01T13:19:23;7.07;56.59
68248;SHT30;55064;49.636;12.164;2023-03-01T13:21:52;6.84;57.54
68248;SHT30;55064;49.636;12.164;2023-03-01T13:24:33;7.03;57.93
68248;SHT30;55064;49.636;12.164;2023-03-01T13:29:53;6.99;57.08
68248;SHT30;55064;49.636;12.164;2023-03-01T13:32:31;6.87;57.17
68248;SHT30;55064;49.636;12.164;2023-03-01T13:40:59;6.90;58.11
68248;SHT30;55064;49.636;12.164;2023-03-01T13:43:34;6.75;57.66
68248;SHT30;55064;49.636;12.164;2023-03-01T13:46:07;6.94;57.48
68248;SHT30;55064;49.636;12.164;2023-03-01T13:48:33;6.70;57.74
68248;SHT30;55064;49.636;12.164;2023-03-01T13:51:03;6.53;58.00
68248;SHT30;55064;49.636;12.164;2023-03-01T13:53:31;6.34;58.49
68248;SHT30;55064;49.636;12.164;2023-03-01T13:56:09;6.34;58.19
68248;SHT30;55064;49.636;12.164;2023-03-01T13:58:59;6.61;57.86
68248;SHT30;55064;49.636;12.164;2023-03-01T14:01:34;6.41;58.01
68248;SHT30;55064;49.636;12.164;2023-03-01T14:04:02;6.53;58.31
68248;SHT30;55064;49.636;12.164;2023-03-01T14:06:31;6.59;58.41
68248;SHT30;55064;49.636;12.164;2023-03-01T14:09:23;6.72;58.15
68248;SHT30;55064;49.636;12.164;2023-03-01T14:14:39;6.55;57.71
68248;SHT30;55064;49.636;12.164;2023-03-01T14:17:15;6.45;58.16
68248;SHT30;55064;49.636;12.164;2023-03-01T14:19:48;6.59;58.30
68248;SHT30;55064;49.636;12.164;2023-03-01T14:24:55;6.63;58.17
68248;SHT30;55064;49.636;12.164;2023-03-01T14:27:26;6.83;58.43
68248;SHT30;55064;49.636;12.164;2023-03-01T14:30:04;7.05;57.83
68248;SHT30;55064;49.636;12.164;2023-03-01T14:32:36;6.57;57.67
68248;SHT30;55064;49.636;12.164;2023-03-01T14:35:02;6.66;58.17
68248;SHT30;55064;49.636;12.164;2023-03-01T14:37:33;6.72;58.17
68248;SHT30;55064;49.636;12.164;2023-03-01T14:40:03;6.72;58.07
68248;SHT30;55064;49.636;12.164;2023-03-01T14:42:35;6.89;58.10
68248;SHT30;55064;49.636;12.164;2023-03-01T14:45:02;6.73;58.00
68248;SHT30;55064;49.636;12.164;2023-03-01T14:47:32;6.48;58.16
68248;SHT30;55064;49.636;12.164;2023-03-01T14:50:05;6.62;58.28
68248;SHT30;55064;49.636;12.164;2023-03-01T14:52:37;6.65;58.20
68248;SHT30;55064;49.636;12.164;2023-03-01T14:55:07;6.41;58.49
68248;SHT30;55064;49.636;12.164;2023-03-01T14:57:43;6.52;58.43
68248;SHT30;55064;49.636;12.164;2023-03-01T15:00:18;6.66;58.48
68248;SHT30;55064;49.636;12.164;2023-03-01T15:02:45;6.39;58.65
68248;SHT30;55064;49.636;12.164;2023-03-01T15:05:14;6.34;58.47
68248;SHT30;55064;49.636;12.164;2023-03-01T15:07:42;6.31;59.05
68248;SHT30;55064;49.636;12.164;2023-03-01T15:10:29;6.21;58.93
68248;SHT30;55064;49.636;12.164;2023-03-01T15:12:55;6.10;58.99
68248;SHT30;55064;49.636;12.164;2023-03-01T15:17:55;6.15;58.72
68248;SHT30;55064;49.636;12.164;2023-03-01T15:20:26;6.24;59.01
68248;SHT30;55064;49.636;12.164;2023-03-01T15:22:56;6.34;58.71
68248;SHT30;55064;49.636;12.164;2023-03-01T15:25:25;6.32;58.83
68248;SHT30;55064;49.636;12.164;2023-03-01T15:27:56;6.25;59.03
68248;SHT30;55064;49.636;12.164;2023-03-01T15:30:30;6.29;59.36
68248;SHT30;55064;49.636;12.164;2023-03-01T15:35:50;6.15;59.66
68248;SHT30;55064;49.636;12.164;2023-03-01T15:38:55;6.08;59.80
68248;SHT30;55064;49.636;12.164;2023-03-01T15:41:48;5.97;59.97
68248;SHT30;55064;49.636;12.164;2023-03-01T15:44:29;6.08;60.31
68248;SHT30;55064;49.636;12.164;2023-03-01T15:46:58;6.01;59.36
68248;SHT30;55064;49.636;12.164;2023-03-01T15:49:51;5.85;59.80
68248;SHT30;55064;49.636;12.164;2023-03-01T15:52:33;5.77;59.62
68248;SHT30;55064;49.636;12.164;2023-03-01T15:55:05;5.74;60.18
68248;SHT30;55064;49.636;12.164;2023-03-01T15:57:46;5.69;59.97
68248;SHT30;55064;49.636;12.164;2023-03-01T16:00:15;5.60;60.23
68248;SHT30;55064;49.636;12.164;2023-03-01T16:02:42;5.63;60.50
68248;SHT30;55064;49.636;12.164;2023-03-01T16:05:30;5.53;60.61
68248;SHT30;55064;49.636;12.164;2023-03-01T16:07:56;5.49;60.64
68248;SHT30;55064;49.636;12.164;2023-03-01T16:10:23;5.42;61.64
68248;SHT30;55064;49.636;12.164;2023-03-01T16:12:50;5.38;61.76
68248;SHT30;55064;49.636;12.164;2023-03-01T16:15:26;5.34;61.54
68248;SHT30;55064;49.636;12.164;2023-03-01T16:17:53;5.31;62.04
68248;SHT30;55064;49.636;12.164;2023-03-01T16:20:20;5.30;62.13
68248;SHT30;55064;49.636;12.164;2023-03-01T16:22:46;5.25;61.88
68248;SHT30;55064;49.636;12.164;2023-03-01T16:25:15;5.18;62.32
68248;SHT30;55064;49.636;12.164;2023-03-01T16:27:44;5.13;61.80
68248;SHT30;55064;49.636;12.164;2023-03-01T16:30:14;5.13;62.48
68248;SHT30;55064;49.636;12.164;2023-03-01T16:32:41;5.13;62.38
68248;SHT30;55064;49.636;12.164;2023-03-01T16:35:13;5.04;62.35
68248;SHT30;55064;49.636;12.164;2023-03-01T16:37:40;4.97;62.76
68248;SHT30;55064;49.636;12.164;2023-03-01T16:40:20;4.95;62.60
68248;SHT30;55064;49.636;12.164;2023-03-01T16:42:50;4.77;63.03
68248;SHT30;55064;49.636;12.164;2023-03-01T16:45:16;4.70;63.12
68248;SHT30;55064;49.636;12.164;2023-03-01T16:47:42;4.73;63.48
68248;SHT30;55064;49.636;12.164;2023-03-01T16:50:10;4.65;63.75
68248;SHT30;55064;49.636;12.164;2023-03-01T16:52:35;4.56;63.72
68248;SHT30;55064;49.636;12.164;2023-03-01T16:55:06;4.39;64.65
68248;SHT30;55064;49.636;12.164;2023-03-01T16:57:34;4.32;64.67
68248;SHT30;55064;49.636;12.164;2023-03-01T17:00:00;4.32;64.58
68248;SHT30;55064;49.636;12.164;2023-03-01T17:02:36;4.22;65.39
68248;SHT30;55064;49.636;12.164;2023-03-01T17:05:02;4.15;65.66
68248;SHT30;55064;49.636;12.164;2023-03-01T17:07:28;4.07;66.12
68248;SHT30;55064;49.636;12.164;2023-03-01T17:09:54;4.07;65.84
68248;SHT30;55064;49.636;12.164;2023-03-01T17:12:22;3.97;66.21
68248;SHT30;55064;49.636;12.164;2023-03-01T17:14:49;3.93;66.37
68248;SHT30;55064;49.636;12.164;2023-03-01T17:17:15;3.86;66.69
68248;SHT30;55064;49.636;12.164;2023-03-01T17:19:41;3.84;66.65
68248;SHT30;55064;49.636;12.164;2023-03-01T17:22:09;3.84;66.51
68248;SHT30;55064;49.636;12.164;2023-03-01T17:24:36;3.82;67.05
68248;SHT30;55064;49.636;12.164;2023-03-01T17:27:04;3.83;66.29
68248;SHT30;55064;49.636;12.164;2023-03-01T17:29:30;3.80;66.51
68248;SHT30;55064;49.636;12.164;2023-03-01T17:31:56;3.79;66.85